sensor_id;sensor_type;location;lat;lon;timestamp;temperature;humidity
29201;DHT22;16244;51.956;12.980;2023-12-07T00:00:08;1.20;99.90
29201;DHT22;16244;51.956;12.980;2023-12-07T00:02:35;1.20;99.90
29201;DHT22;16244;51.956;12.980;2023-12-07T00:05:03;1.30;99.90
29201;DHT22;16244;51.956;12.980;2023-12-07T00:07:31;1.30;99.90
29201;DHT22;16244;51.956;12.980;2023-12-07T00:09:59;1.30;99.90
29201;DHT22;16244;51.956;12.980;2023-12-07T00:12:26;1.30;99.90
29201;DHT22;16244;51.956;12.980;2023-12-07T00:14:55;1.20;99.90
29201;DHT22;16244;51.956;12.980;2023-12-07T00:17:23;1.20;99.90
29201;DHT22;16244;51.956;12.980;2023-12-07T00:19:51;1.30;99.90
29201;DHT22;16244;51.956;12.980;2023-12-07T00:22:20;1.30;99.90
29201;DHT22;16244;51.956;12.980;2023-12-07T00:24:48;1.20;99.90
29201;DHT22;16244;51.956;12.980;2023-12-07T00:27:16;1.20;99.90
29201;DHT22;16244;51.956;12.980;2023-12-07T00:29:43;1.20;99.90
29201;DHT22;16244;51.956;12.980;2023-12-07T00:32:12;1.30;99.90
29201;DHT22;16244;51.956;12.980;2023-12-07T00:34:40;1.20;99.90
29201;DHT22;16244;51.956;12.980;2023-12-07T00:37:07;1.30;99.90
29201;DHT22;16244;51.956;12.980;2023-12-07T00:39:35;1.20;99.90
29201;DHT22;16244;51.956;12.980;2023-12-07T00:42:03;1.30;99.90
29201;DHT22;16244;51.956;12.980;2023-12-07T00:44:30;1.30;99.90
29201;DHT22;16244;51.956;12.980;2023-12-07T00:46:58;1.30;99.90
29201;DHT22;16244;51.956;12.980;2023-12-07T00:49:27;1.30;99.90
29201;DHT22;16244;51.956;12.980;2023-12-07T00:51:54;1.20;99.90
29201;DHT22;16244;51.956;12.980;2023-12-07T00:54:21;1.30;99.90
29201;DHT22;16244;51.956;12.980;2023-12-07T00:56:49;1.30;99.90
29201;DHT22;16244;51.956;12.980;2023-12-07T00:59:17;1.30;99.90
29201;DHT22;16244;51.956;12.980;2023-12-07T01:01:44;1.30;99.90
29201;DHT22;16244;51.956;12.980;2023-12-07T01:04:12;1.20;99.90
29201;DHT22;16244;51.956;12.980;2023-12-07T01:06:41;1.20;99.90
29201;DHT22;16244;51.956;12.980;2023-12-07T01:09:09;1.20;99.90
29201;DHT22;16244;51.956;12.980;2023-12-07T01:11:39;1.30;99.90
29201;DHT22;16244;51.956;12.980;2023-12-07T01:14:06;1.30;99.90
29201;DHT22;16244;51.956;12.980;2023-12-07T01:16:34;1.30;99.90
29201;DHT22;16244;51.956;12.980;2023-12-07T01:19:01;1.30;99.90
29201;DHT22;16244;51.956;12.980;2023-12-07T01:21:34;1.30;99.90
29201;DHT22;16244;51.956;12.980;2023-12-07T01:24:02;1.30;99.90
29201;DHT22;16244;51.956;12.980;2023-12-07T01:26:30;1.30;99.90
29201;DHT22;16244;51.956;12.980;2023-12-07T01:28:58;1.30;99.90
29201;DHT22;16244;51.956;12.980;2023-12-07T01:31:25;1.30;99.90
29201;DHT22;16244;51.956;12.980;2023-12-07T01:33:53;1.30;99.90
29201;DHT22;16244;51.956;12.980;2023-12-07T01:36:20;1.30;99.90
29201;DHT22;16244;51.956;12.980;2023-12-07T01:38:48;1.20;99.90
29201;DHT22;16244;51.956;12.980;2023-12-07T01:41:17;1.20;99.90
29201;DHT22;16244;51.956;12.980;2023-12-07T01:43:45;1.20;99.90
29201;DHT22;16244;51.956;12.980;2023-12-07T01:46:13;1.30;99.90
29201;DHT22;16244;51.956;12.980;2023-12-07T01:48:42;1.30;99.90
29201;DHT22;16244;51.956;12.980;2023-12-07T01:51:10;1.30;99.90
29201;DHT22;16244;51.956;12.980;2023-12-07T01:53:39;1.20;99.90
29201;DHT22;16244;51.956;12.980;2023-12-07T01:56:08;1.20;99.90
29201;DHT22;16244;51.956;12.980;2023-12-07T01:58:38;1.30;99.90
29201;DHT22;16244;51.956;12.980;2023-12-07T02:01:05;1.20;99.90
29201;DHT22;16244;51.956;12.980;2023-12-07T02:03:33;1.30;99.90
29201;DHT22;16244;51.956;12.980;2023-12-07T02:06:01;1.30;99.90
29201;DHT22;16244;51.956;12.980;2023-12-07T02:08:29;1.30;99.90
29201;DHT22;16244;51.956;12.980;2023-12-07T02:10:56;1.30;99.90
29201;DHT22;16244;51.956;12.980;2023-12-07T02:13:24;1.30;99.90
29201;DHT22;16244;51.956;12.980;2023-12-07T02:15:54;1.30;99.90
29201;DHT22;16244;51.956;12.980;2023-12-07T02:18:27;1.30;99.90
29201;DHT22;16244;51.956;12.980;2023-12-07T02:21:02;1.30;99.90
29201;DHT22;16244;51.956;12.980;2023-12-07T02:23:32;1.30;99.90
29201;DHT22;16244;51.956;12.980;2023-12-07T02:26:03;1.30;99.90
29201;DHT22;16244;51.956;12.980;2023-12-07T02:28:32;1.30;99.90
29201;DHT22;16244;51.956;12.980;2023-12-07T02:30:59;1.30;99.90
29201;DHT22;16244;51.956;12.980;2023-12-07T02:33:27;1.30;99.90
29201;DHT22;16244;51.956;12.980;2023-12-07T02:35:54;1.30;99.90
29201;DHT22;16244;51.956;12.980;2023-12-07T02:38:23;1.30;99.90
29201;DHT22;16244;51.956;12.980;2023-12-07T02:40:54;1.30;99.90
29201;DHT22;16244;51.956;12.980;2023-12-07T02:43:22;1.40;99.90
29201;DHT22;16244;51.956;12.980;2023-12-07T02:45:51;1.30;99.90
29201;DHT22;16244;51.956;12.980;2023-12-07T02:48:20;1.40;99.90
29201;DHT22;16244;51.956;12.980;2023-12-07T02:50:48;1.30;99.90
29201;DHT22;16244;51.956;12.980;2023-12-07T02:53:15;1.40;99.90
29201;DHT22;16244;51.956;12.980;2023-12-07T02:55:42;1.30;99.90
29201;DHT22;16244;51.956;12.980;2023-12-07T02:58:10;1.40;99.90
29201;DHT22;16244;51.956;12.980;2023-12-07T03:00:37;1.30;99.90
29201;DHT22;16244;51.956;12.980;2023-12-07T03:03:06;1.30;99.90
29201;DHT22;16244;51.956;12.980;2023-12-07T03:05:34;1.30;99.90
29201;DHT22;16244;51.956;12.980;2023-12-07T03:08:01;1.40;99.90
29201;DHT22;16244;51.956;12.980;2023-12-07T03:10:28;1.30;99.90
29201;DHT22;16244;51.956;12.980;2023-12-07T03:12:56;1.40;99.90
29201;DHT22;16244;51.956;12.980;2023-12-07T03:15:24;1.40;99.90
29201;DHT22;16244;51.956;12.980;2023-12-07T03:17:52;1.40;99.90
29201;DHT22;16244;51.956;12.980;2023-12-07T03:20:21;1.30;99.90
29201;DHT22;16244;51.956;12.980;2023-12-07T03:22:48;1.30;99.90
29201;DHT22;16244;51.956;12.980;2023-12-07T03:25:16;1.40;99.90
29201;DHT22;16244;51.956;12.980;2023-12-07T03:27:43;1.40;99.90
29201;DHT22;16244;51.956;12.980;2023-12-07T03:30:11;1.40;99.90
29201;DHT22;16244;51.956;12.980;2023-12-07T03:32:39;1.40;99.90
29201;DHT22;16244;51.956;12.980;2023-12-07T03:35:06;1.40;99.90
29201;DHT22;16244;51.956;12.980;2023-12-07T03:37:35;1.40;99.90
29201;DHT22;16244;51.956;12.980;2023-12-07T03:40:04;1.40;99.90
29201;DHT22;16244;51.956;12.980;2023-12-07T03:42:32;1.40;99.90
29201;DHT22;16244;51.956;12.980;2023-12-07T03:44:59;1.40;99.90
29201;DHT22;16244;51.956;12.980;2023-12-07T03:47:27;1.50;99.90
29201;DHT22;16244;51.956;12.980;2023-12-07T03:49:55;1.40;99.90
29201;DHT22;16244;51.956;12.980;2023-12-07T03:52:22;1.50;99.90
29201;DHT22;16244;51.956;12.980;2023-12-07T03:54:51;1.50;99.90
29201;DHT22;16244;51.956;12.980;2023-12-07T03:57:18;1.40;99.90
29201;DHT22;16244;51.956;12.980;2023-12-07T03:59:46;1.40;99.90
29201;DHT22;16244;51.956;12.980;2023-12-07T04:02:14;1.40;99.90
29201;DHT22;16244;51.956;12.980;2023-12-07T04:04:41;1.40;99.90
29201;DHT22;16244;51.956;12.980;2023-12-07T04:07:09;1.50;99.90
29201;DHT22;16244;51.956;12.980;2023-12-07T04:09:36;1.50;99.90
29201;DHT22;16244;51.956;12.980;2023-12-07T04:12:06;1.40;99.90
29201;DHT22;16244;51.956;12.980;2023-12-07T04:14:33;1.40;99.90
29201;DHT22;16244;51.956;12.980;2023-12-07T04:17:01;1.40;99.90
29201;DHT22;16244;51.956;12.980;2023-12-07T04:19:28;1.40;99.90
29201;DHT22;16244;51.956;12.980;2023-12-07T04:21:56;1.40;99.90
29201;DHT22;16244;51.956;12.980;2023-12-07T04:24:23;1.40;99.90
29201;DHT22;16244;51.956;12.980;2023-12-07T04:26:50;1.40;99.90
29201;DHT22;16244;51.956;12.980;2023-12-07T04:29:19;1.40;99.90
29201;DHT22;16244;51.956;12.980;2023-12-07T04:31:47;1.40;99.90
29201;DHT22;16244;51.956;12.980;2023-12-07T04:34:14;1.40;99.90
29201;DHT22;16244;51.956;12.980;2023-12-07T04:36:42;1.40;99.90
29201;DHT22;16244;51.956;12.980;2023-12-07T04:39:10;1.50;99.90
29201;DHT22;16244;51.956;12.980;2023-12-07T04:41:37;1.50;99.90
29201;DHT22;16244;51.956;12.980;2023-12-07T04:44:05;1.50;99.90
29201;DHT22;16244;51.956;12.980;2023-12-07T04:46:33;1.50;99.90
29201;DHT22;16244;51.956;12.980;2023-12-07T04:49:01;1.50;99.90
29201;DHT22;16244;51.956;12.980;2023-12-07T04:51:29;1.60;99.90
29201;DHT22;16244;51.956;12.980;2023-12-07T04:53:57;1.60;99.90
29201;DHT22;16244;51.956;12.980;2023-12-07T04:56:24;1.60;99.90
29201;DHT22;16244;51.956;12.980;2023-12-07T04:58:52;1.60;99.90
29201;DHT22;16244;51.956;12.980;2023-12-07T05:01:19;1.60;99.90
29201;DHT22;16244;51.956;12.980;2023-12-07T05:03:48;1.60;99.90
29201;DHT22;16244;51.956;12.980;2023-12-07T05:06:15;1.60;99.90
29201;DHT22;16244;51.956;12.980;2023-12-07T05:08:43;1.60;99.90
29201;DHT22;16244;51.956;12.980;2023-12-07T05:11:10;1.60;99.90
29201;DHT22;16244;51.956;12.980;2023-12-07T05:13:38;1.60;99.90
29201;DHT22;16244;51.956;12.980;2023-12-07T05:16:06;1.60;99.90
29201;DHT22;16244;51.956;12.980;2023-12-07T05:18:33;1.60;99.90
29201;DHT22;16244;51.956;12.980;2023-12-07T05:21:02;1.60;99.90
29201;DHT22;16244;51.956;12.980;2023-12-07T05:23:30;1.70;99.90
29201;DHT22;16244;51.956;12.980;2023-12-07T05:25:58;1.70;99.90
29201;DHT22;16244;51.956;12.980;2023-12-07T05:28:26;1.70;99.90
29201;DHT22;16244;51.956;12.980;2023-12-07T05:30:54;1.70;99.90
29201;DHT22;16244;51.956;12.980;2023-12-07T05:33:23;1.70;99.90
29201;DHT22;16244;51.956;12.980;2023-12-07T05:35:51;1.70;99.90
29201;DHT22;16244;51.956;12.980;2023-12-07T05:38:20;1.70;99.90
29201;DHT22;16244;51.956;12.980;2023-12-07T05:40:48;1.70;99.90
29201;DHT22;16244;51.956;12.980;2023-12-07T05:43:15;1.70;99.90
29201;DHT22;16244;51.956;12.980;2023-12-07T05:45:43;1.70;99.90
29201;DHT22;16244;51.956;12.980;2023-12-07T05:48:10;1.70;99.90
29201;DHT22;16244;51.956;12.980;2023-12-07T05:50:38;1.70;99.90
29201;DHT22;16244;51.956;12.980;2023-12-07T05:53:06;1.70;99.90
29201;DHT22;16244;51.956;12.980;2023-12-07T05:55:35;1.70;99.90
29201;DHT22;16244;51.956;12.980;2023-12-07T05:58:03;1.70;99.90
29201;DHT22;16244;51.956;12.980;2023-12-07T06:00:30;1.70;99.90
29201;DHT22;16244;51.956;12.980;2023-12-07T06:02:58;1.70;99.90
29201;DHT22;16244;51.956;12.980;2023-12-07T06:05:25;1.70;99.90
29201;DHT22;16244;51.956;12.980;2023-12-07T06:07:53;1.70;99.90
29201;DHT22;16244;51.956;12.980;2023-12-07T06:10:21;1.60;99.90
29201;DHT22;16244;51.956;12.980;2023-12-07T06:12:50;1.70;99.90
29201;DHT22;16244;51.956;12.980;2023-12-07T06:15:18;1.70;99.90
29201;DHT22;16244;51.956;12.980;2023-12-07T06:17:46;1.70;99.90
29201;DHT22;16244;51.956;12.980;2023-12-07T06:20:13;1.70;99.90
29201;DHT22;16244;51.956;12.980;2023-12-07T06:22:41;1.70;99.90
29201;DHT22;16244;51.956;12.980;2023-12-07T06:25:09;1.60;99.90
29201;DHT22;16244;51.956;12.980;2023-12-07T06:27:38;1.60;99.90
29201;DHT22;16244;51.956;12.980;2023-12-07T06:30:07;1.60;99.90
29201;DHT22;16244;51.956;12.980;2023-12-07T06:32:35;1.60;99.90
29201;DHT22;16244;51.956;12.980;2023-12-07T06:35:03;1.70;99.90
29201;DHT22;16244;51.956;12.980;2023-12-07T06:37:32;1.60;99.90
29201;DHT22;16244;51.956;12.980;2023-12-07T06:39:59;1.60;99.90
29201;DHT22;16244;51.956;12.980;2023-12-07T06:42:27;1.60;99.90
29201;DHT22;16244;51.956;12.980;2023-12-07T06:44:54;1.60;99.90
29201;DHT22;16244;51.956;12.980;2023-12-07T06:47:23;1.70;99.90
29201;DHT22;16244;51.956;12.980;2023-12-07T06:49:51;1.60;99.90
29201;DHT22;16244;51.956;12.980;2023-12-07T06:52:18;1.60;99.90
29201;DHT22;16244;51.956;12.980;2023-12-07T06:54:46;1.60;99.90
29201;DHT22;16244;51.956;12.980;2023-12-07T06:57:13;1.60;99.90
29201;DHT22;16244;51.956;12.980;2023-12-07T06:59:41;1.70;99.90
29201;DHT22;16244;51.956;12.980;2023-12-07T07:02:08;1.70;99.90
29201;DHT22;16244;51.956;12.980;2023-12-07T07:04:37;1.70;99.90
29201;DHT22;16244;51.956;12.980;2023-12-07T07:07:05;1.80;99.90
29201;DHT22;16244;51.956;12.980;2023-12-07T07:09:33;1.80;99.90
29201;DHT22;16244;51.956;12.980;2023-12-07T07:12:01;1.80;99.90
29201;DHT22;16244;51.956;12.980;2023-12-07T07:14:28;1.80;99.90
29201;DHT22;16244;51.956;12.980;2023-12-07T07:16:56;1.80;99.90
29201;DHT22;16244;51.956;12.980;2023-12-07T07:19:23;1.80;99.90
29201;DHT22;16244;51.956;12.980;2023-12-07T07:21:52;1.80;99.90
29201;DHT22;16244;51.956;12.980;2023-12-07T07:24:19;1.80;99.90
29201;DHT22;16244;51.956;12.980;2023-12-07T07:26:47;1.80;99.90
29201;DHT22;16244;51.956;12.980;2023-12-07T07:29:14;1.80;99.90
29201;DHT22;16244;51.956;12.980;2023-12-07T07:31:41;1.80;99.90
29201;DHT22;16244;51.956;12.980;2023-12-07T07:34:09;1.80;99.90
29201;DHT22;16244;51.956;12.980;2023-12-07T07:36:36;1.80;99.90
29201;DHT22;16244;51.956;12.980;2023-12-07T07:39:05;1.80;99.90
29201;DHT22;16244;51.956;12.980;2023-12-07T07:41:34;1.80;99.90
29201;DHT22;16244;51.956;12.980;2023-12-07T07:44:02;1.80;99.90
29201;DHT22;16244;51.956;12.980;2023-12-07T07:46:30;1.80;99.90
29201;DHT22;16244;51.956;12.980;2023-12-07T07:48:57;1.80;99.90
29201;DHT22;16244;51.956;12.980;2023-12-07T07:51:25;1.80;99.90
29201;DHT22;16244;51.956;12.980;2023-12-07T07:53:52;1.70;99.90
29201;DHT22;16244;51.956;12.980;2023-12-07T07:56:21;1.70;99.90
29201;DHT22;16244;51.956;12.980;2023-12-07T07:58:48;1.70;99.90
29201;DHT22;16244;51.956;12.980;2023-12-07T08:01:16;1.70;99.90
29201;DHT22;16244;51.956;12.980;2023-12-07T08:03:49;1.80;99.90
29201;DHT22;16244;51.956;12.980;2023-12-07T08:06:17;1.80;99.90
29201;DHT22;16244;51.956;12.980;2023-12-07T08:08:44;1.80;99.90
29201;DHT22;16244;51.956;12.980;2023-12-07T08:11:14;1.80;99.90
29201;DHT22;16244;51.956;12.980;2023-12-07T08:13:43;1.80;99.90
29201;DHT22;16244;51.956;12.980;2023-12-07T08:16:10;1.80;99.90
29201;DHT22;16244;51.956;12.980;2023-12-07T08:18:38;1.90;99.90
29201;DHT22;16244;51.956;12.980;2023-12-07T08:21:05;1.90;99.90
29201;DHT22;16244;51.956;12.980;2023-12-07T08:23:34;1.90;99.90
29201;DHT22;16244;51.956;12.980;2023-12-07T08:26:02;1.90;99.90
29201;DHT22;16244;51.956;12.980;2023-12-07T08:28:30;1.90;99.90
29201;DHT22;16244;51.956;12.980;2023-12-07T08:30:58;1.90;99.90
29201;DHT22;16244;51.956;12.980;2023-12-07T08:33:26;1.90;99.90
29201;DHT22;16244;51.956;12.980;2023-12-07T08:35:53;1.90;99.90
29201;DHT22;16244;51.956;12.980;2023-12-07T08:38:23;1.90;99.90
29201;DHT22;16244;51.956;12.980;2023-12-07T08:40:50;2.00;99.90
29201;DHT22;16244;51.956;12.980;2023-12-07T08:43:20;1.90;99.90
29201;DHT22;16244;51.956;12.980;2023-12-07T08:45:49;1.90;99.90
29201;DHT22;16244;51.956;12.980;2023-12-07T08:48:19;1.90;99.90
29201;DHT22;16244;51.956;12.980;2023-12-07T08:50:47;1.90;99.90
29201;DHT22;16244;51.956;12.980;2023-12-07T08:53:15;1.90;99.90
29201;DHT22;16244;51.956;12.980;2023-12-07T08:55:43;1.80;99.90
29201;DHT22;16244;51.956;12.980;2023-12-07T08:58:10;1.90;99.90
29201;DHT22;16244;51.956;12.980;2023-12-07T09:00:38;1.90;99.90
29201;DHT22;16244;51.956;12.980;2023-12-07T09:03:06;2.00;99.90
29201;DHT22;16244;51.956;12.980;2023-12-07T09:05:35;1.90;99.90
29201;DHT22;16244;51.956;12.980;2023-12-07T09:08:02;1.90;99.90
29201;DHT22;16244;51.956;12.980;2023-12-07T09:10:30;1.90;99.90
29201;DHT22;16244;51.956;12.980;2023-12-07T09:12:57;1.90;99.90
29201;DHT22;16244;51.956;12.980;2023-12-07T09:15:25;1.90;99.90
29201;DHT22;16244;51.956;12.980;2023-12-07T09:17:52;1.90;99.90
29201;DHT22;16244;51.956;12.980;2023-12-07T09:20:20;1.90;99.90
29201;DHT22;16244;51.956;12.980;2023-12-07T09:22:49;1.90;99.90
29201;DHT22;16244;51.956;12.980;2023-12-07T09:25:16;1.90;99.90
29201;DHT22;16244;51.956;12.980;2023-12-07T09:27:44;1.90;99.90
29201;DHT22;16244;51.956;12.980;2023-12-07T09:30:11;1.90;99.90
29201;DHT22;16244;51.956;12.980;2023-12-07T09:32:39;1.80;99.90
29201;DHT22;16244;51.956;12.980;2023-12-07T09:35:09;1.90;99.90
29201;DHT22;16244;51.956;12.980;2023-12-07T09:37:41;1.90;99.90
29201;DHT22;16244;51.956;12.980;2023-12-07T09:40:14;1.90;99.90
29201;DHT22;16244;51.956;12.980;2023-12-07T09:42:42;1.90;99.90
29201;DHT22;16244;51.956;12.980;2023-12-07T09:45:11;2.00;99.90
29201;DHT22;16244;51.956;12.980;2023-12-07T09:47:39;2.00;99.90
29201;DHT22;16244;51.956;12.980;2023-12-07T09:50:08;2.00;99.90
29201;DHT22;16244;51.956;12.980;2023-12-07T09:52:36;2.00;99.90
29201;DHT22;16244;51.956;12.980;2023-12-07T09:55:05;1.90;99.90
29201;DHT22;16244;51.956;12.980;2023-12-07T09:57:34;2.00;99.90
29201;DHT22;16244;51.956;12.980;2023-12-07T10:00:01;2.00;99.90
29201;DHT22;16244;51.956;12.980;2023-12-07T10:02:29;2.10;99.90
29201;DHT22;16244;51.956;12.980;2023-12-07T10:05:06;2.00;99.90
29201;DHT22;16244;51.956;12.980;2023-12-07T10:07:34;2.10;99.90
29201;DHT22;16244;51.956;12.980;2023-12-07T10:10:04;2.10;99.90
29201;DHT22;16244;51.956;12.980;2023-12-07T10:12:34;2.10;99.90
29201;DHT22;16244;51.956;12.980;2023-12-07T10:15:11;2.10;99.90
29201;DHT22;16244;51.956;12.980;2023-12-07T10:17:46;2.10;99.90
29201;DHT22;16244;51.956;12.980;2023-12-07T10:20:18;2.10;99.90
29201;DHT22;16244;51.956;12.980;2023-12-07T10:23:00;2.10;99.90
29201;DHT22;16244;51.956;12.980;2023-12-07T10:25:29;2.00;99.90
29201;DHT22;16244;51.956;12.980;2023-12-07T10:27:58;2.10;99.90
29201;DHT22;16244;51.956;12.980;2023-12-07T10:30:27;2.10;99.90
29201;DHT22;16244;51.956;12.980;2023-12-07T10:32:54;2.00;99.90
29201;DHT22;16244;51.956;12.980;2023-12-07T10:35:22;2.00;99.90
29201;DHT22;16244;51.956;12.980;2023-12-07T10:37:50;2.00;99.90
29201;DHT22;16244;51.956;12.980;2023-12-07T10:40:17;2.00;99.90
29201;DHT22;16244;51.956;12.980;2023-12-07T10:42:48;2.10;99.90
29201;DHT22;16244;51.956;12.980;2023-12-07T10:45:19;2.00;99.90
29201;DHT22;16244;51.956;12.980;2023-12-07T10:47:51;2.00;99.90
29201;DHT22;16244;51.956;12.980;2023-12-07T10:50:22;2.00;99.90
29201;DHT22;16244;51.956;12.980;2023-12-07T10:52:52;2.00;99.90
29201;DHT22;16244;51.956;12.980;2023-12-07T10:55:21;2.10;99.90
29201;DHT22;16244;51.956;12.980;2023-12-07T10:57:52;2.10;99.90
29201;DHT22;16244;51.956;12.980;2023-12-07T11:00:22;2.10;99.90
29201;DHT22;16244;51.956;12.980;2023-12-07T11:02:51;2.10;99.90
29201;DHT22;16244;51.956;12.980;2023-12-07T11:05:19;2.10;99.90
29201;DHT22;16244;51.956;12.980;2023-12-07T11:07:52;2.10;99.90
29201;DHT22;16244;51.956;12.980;2023-12-07T11:10:25;2.20;99.90
29201;DHT22;16244;51.956;12.980;2023-12-07T11:13:00;2.20;99.90
29201;DHT22;16244;51.956;12.980;2023-12-07T11:15:34;2.10;99.90
29201;DHT22;16244;51.956;12.980;2023-12-07T11:18:02;2.10;99.90
29201;DHT22;16244;51.956;12.980;2023-12-07T11:20:39;2.10;99.90
29201;DHT22;16244;51.956;12.980;2023-12-07T11:23:08;2.00;99.90
29201;DHT22;16244;51.956;12.980;2023-12-07T11:25:36;2.00;99.90
29201;DHT22;16244;51.956;12.980;2023-12-07T11:28:05;2.10;99.90
29201;DHT22;16244;51.956;12.980;2023-12-07T11:30:35;2.00;99.90
29201;DHT22;16244;51.956;12.980;2023-12-07T11:33:06;2.10;99.90
29201;DHT22;16244;51.956;12.980;2023-12-07T11:35:33;2.10;99.90
29201;DHT22;16244;51.956;12.980;2023-12-07T11:38:21;2.10;99.90
29201;DHT22;16244;51.956;12.980;2023-12-07T11:40:48;2.00;99.90
29201;DHT22;16244;51.956;12.980;2023-12-07T11:43:35;2.10;99.90
29201;DHT22;16244;51.956;12.980;2023-12-07T11:46:06;2.10;99.90
29201;DHT22;16244;51.956;12.980;2023-12-07T11:48:35;2.10;99.90
29201;DHT22;16244;51.956;12.980;2023-12-07T11:51:04;2.10;99.90
29201;DHT22;16244;51.956;12.980;2023-12-07T11:53:33;2.00;99.90
29201;DHT22;16244;51.956;12.980;2023-12-07T11:56:02;2.00;99.90
29201;DHT22;16244;51.956;12.980;2023-12-07T11:58:31;2.00;99.90
29201;DHT22;16244;51.956;12.980;2023-12-07T12:00:58;2.00;99.90
29201;DHT22;16244;51.956;12.980;2023-12-07T12:03:29;2.10;99.90
29201;DHT22;16244;51.956;12.980;2023-12-07T12:05:57;2.10;99.90
29201;DHT22;16244;51.956;12.980;2023-12-07T12:08:25;2.00;99.90
29201;DHT22;16244;51.956;12.980;2023-12-07T12:10:53;2.10;99.90
29201;DHT22;16244;51.956;12.980;2023-12-07T12:13:26;2.10;99.90
29201;DHT22;16244;51.956;12.980;2023-12-07T12:15:55;2.10;99.90
29201;DHT22;16244;51.956;12.980;2023-12-07T12:18:23;2.10;99.90
29201;DHT22;16244;51.956;12.980;2023-12-07T12:20:54;2.10;99.90
29201;DHT22;16244;51.956;12.980;2023-12-07T12:23:21;2.10;99.90
29201;DHT22;16244;51.956;12.980;2023-12-07T12:25:49;2.10;99.90
29201;DHT22;16244;51.956;12.980;2023-12-07T12:28:18;2.20;99.90
29201;DHT22;16244;51.956;12.980;2023-12-07T12:30:48;2.10;99.90
29201;DHT22;16244;51.956;12.980;2023-12-07T12:33:15;2.10;99.90
29201;DHT22;16244;51.956;12.980;2023-12-07T12:35:43;2.10;99.90
29201;DHT22;16244;51.956;12.980;2023-12-07T12:38:13;2.20;99.90
29201;DHT22;16244;51.956;12.980;2023-12-07T12:40:41;2.20;99.90
29201;DHT22;16244;51.956;12.980;2023-12-07T12:43:09;2.20;99.90
29201;DHT22;16244;51.956;12.980;2023-12-07T12:45:37;2.30;99.90
29201;DHT22;16244;51.956;12.980;2023-12-07T12:48:05;2.30;99.90
29201;DHT22;16244;51.956;12.980;2023-12-07T12:50:35;2.30;99.90
29201;DHT22;16244;51.956;12.980;2023-12-07T12:53:05;2.30;99.90
29201;DHT22;16244;51.956;12.980;2023-12-07T12:55:37;2.20;99.90
29201;DHT22;16244;51.956;12.980;2023-12-07T12:58:07;2.30;99.90
29201;DHT22;16244;51.956;12.980;2023-12-07T13:00:37;2.30;99.90
29201;DHT22;16244;51.956;12.980;2023-12-07T13:03:07;2.30;99.90
29201;DHT22;16244;51.956;12.980;2023-12-07T13:05:36;2.30;99.90
29201;DHT22;16244;51.956;12.980;2023-12-07T13:08:04;2.30;99.90
29201;DHT22;16244;51.956;12.980;2023-12-07T13:10:31;2.30;99.90
29201;DHT22;16244;51.956;12.980;2023-12-07T13:13:00;2.30;99.90
29201;DHT22;16244;51.956;12.980;2023-12-07T13:15:29;2.30;99.90
29201;DHT22;16244;51.956;12.980;2023-12-07T13:17:57;2.30;99.90
29201;DHT22;16244;51.956;12.980;2023-12-07T13:20:24;2.40;99.90
29201;DHT22;16244;51.956;12.980;2023-12-07T13:22:52;2.30;99.90
29201;DHT22;16244;51.956;12.980;2023-12-07T13:25:21;2.40;99.90
29201;DHT22;16244;51.956;12.980;2023-12-07T13:27:49;2.40;99.90
29201;DHT22;16244;51.956;12.980;2023-12-07T13:30:18;2.40;99.90
29201;DHT22;16244;51.956;12.980;2023-12-07T13:32:45;2.40;99.90
29201;DHT22;16244;51.956;12.980;2023-12-07T13:35:14;2.40;99.90
29201;DHT22;16244;51.956;12.980;2023-12-07T13:37:41;2.40;99.90
29201;DHT22;16244;51.956;12.980;2023-12-07T13:40:09;2.50;99.90
29201;DHT22;16244;51.956;12.980;2023-12-07T13:42:38;2.40;99.90
29201;DHT22;16244;51.956;12.980;2023-12-07T13:45:06;2.40;99.90
29201;DHT22;16244;51.956;12.980;2023-12-07T13:47:36;2.40;99.90
29201;DHT22;16244;51.956;12.980;2023-12-07T13:50:05;2.40;99.90
29201;DHT22;16244;51.956;12.980;2023-12-07T13:52:34;2.30;99.90
29201;DHT22;16244;51.956;12.980;2023-12-07T13:55:01;2.30;99.90
29201;DHT22;16244;51.956;12.980;2023-12-07T13:57:29;2.30;99.90
29201;DHT22;16244;51.956;12.980;2023-12-07T13:59:56;2.30;99.90
29201;DHT22;16244;51.956;12.980;2023-12-07T14:02:24;2.30;99.90
29201;DHT22;16244;51.956;12.980;2023-12-07T14:04:53;2.30;99.90
29201;DHT22;16244;51.956;12.980;2023-12-07T14:07:21;2.30;99.90
29201;DHT22;16244;51.956;12.980;2023-12-07T14:09:51;2.40;99.90
29201;DHT22;16244;51.956;12.980;2023-12-07T14:12:19;2.40;99.90
29201;DHT22;16244;51.956;12.980;2023-12-07T14:14:47;2.40;99.90
29201;DHT22;16244;51.956;12.980;2023-12-07T14:17:16;2.40;99.90
29201;DHT22;16244;51.956;12.980;2023-12-07T14:19:44;2.40;99.90
29201;DHT22;16244;51.956;12.980;2023-12-07T14:22:15;2.40;99.90
29201;DHT22;16244;51.956;12.980;2023-12-07T14:24:42;2.30;99.90
29201;DHT22;16244;51.956;12.980;2023-12-07T14:27:10;2.30;99.90
29201;DHT22;16244;51.956;12.980;2023-12-07T14:29:38;2.30;99.90
29201;DHT22;16244;51.956;12.980;2023-12-07T14:32:06;2.30;99.90
29201;DHT22;16244;51.956;12.980;2023-12-07T14:34:35;2.30;99.90
29201;DHT22;16244;51.956;12.980;2023-12-07T14:37:03;2.30;99.90
29201;DHT22;16244;51.956;12.980;2023-12-07T14:39:33;2.20;99.90
29201;DHT22;16244;51.956;12.980;2023-12-07T14:42:00;2.20;99.90
29201;DHT22;16244;51.956;12.980;2023-12-07T14:44:28;2.30;99.90
29201;DHT22;16244;51.956;12.980;2023-12-07T14:46:56;2.30;99.90
29201;DHT22;16244;51.956;12.980;2023-12-07T14:49:24;2.30;99.90
29201;DHT22;16244;51.956;12.980;2023-12-07T14:51:54;2.30;99.90
29201;DHT22;16244;51.956;12.980;2023-12-07T14:54:22;2.30;99.90
29201;DHT22;16244;51.956;12.980;2023-12-07T14:56:51;2.20;99.90
29201;DHT22;16244;51.956;12.980;2023-12-07T14:59:18;2.10;99.90
29201;DHT22;16244;51.956;12.980;2023-12-07T15:01:46;2.20;99.90
29201;DHT22;16244;51.956;12.980;2023-12-07T15:04:13;2.20;99.90
29201;DHT22;16244;51.956;12.980;2023-12-07T15:06:41;2.20;99.90
29201;DHT22;16244;51.956;12.980;2023-12-07T15:09:08;2.20;99.90
29201;DHT22;16244;51.956;12.980;2023-12-07T15:11:36;2.20;99.90
29201;DHT22;16244;51.956;12.980;2023-12-07T15:14:04;2.10;99.90
29201;DHT22;16244;51.956;12.980;2023-12-07T15:16:32;2.10;99.90
29201;DHT22;16244;51.956;12.980;2023-12-07T15:19:00;2.10;99.90
29201;DHT22;16244;51.956;12.980;2023-12-07T15:21:29;2.20;99.90
29201;DHT22;16244;51.956;12.980;2023-12-07T15:23:58;2.10;99.90
29201;DHT22;16244;51.956;12.980;2023-12-07T15:26:26;2.00;99.90
29201;DHT22;16244;51.956;12.980;2023-12-07T15:28:53;1.90;99.90
29201;DHT22;16244;51.956;12.980;2023-12-07T15:31:22;1.90;99.90
29201;DHT22;16244;51.956;12.980;2023-12-07T15:33:50;1.90;99.90
29201;DHT22;16244;51.956;12.980;2023-12-07T15:36:18;1.90;99.90